This is the latest recevied weather packets stored in our database for station/object W4SKW. If no packets are shown the sender has not sent any weather packets the latest 10 day(s).
| Time | Temp. | Humidity | Pressure | Rain* | Wind** | Luminosity | Snow |
|---|---|---|---|---|---|---|---|
| 1777834293 | 19.44° C | 44% | 1021.1 hPa | 0 mm | - | 753 W/m² | - |
| 1777833988 | 19.44° C | 42% | 1021.2 hPa | 0 mm | - | 762 W/m² | - |
| 1777833685 | 19.44° C | 46% | 1021.3 hPa | 0 mm | - | 765 W/m² | - |
| 1777833381 | 19.44° C | 45% | 1021.4 hPa | 0 mm | - | 770 W/m² | - |
| 1777833079 | 19.44° C | 41% | 1021.5 hPa | 0 mm | - | 775 W/m² | - |
| 1777832777 | 18.89° C | 46% | 1021.5 hPa | 0 mm | - | 775 W/m² | - |
| 1777832474 | 20° C | 45% | 1021.5 hPa | 0 mm | - | 774 W/m² | - |
| 1777832165 | 18.89° C | 47% | 1021.5 hPa | 0 mm | - | 783 W/m² | - |
| 1777831862 | 19.44° C | 45% | 1021.5 hPa | 0 mm | - | 783 W/m² | - |
| 1777831559 | 18.89° C | 44% | 1021.8 hPa | 0 mm | - | 784 W/m² | - |
| 1777831257 | 18.33° C | 50% | 1021.6 hPa | 0 mm | - | 783 W/m² | - |
| 1777830954 | 18.89° C | 46% | 1021.8 hPa | 0 mm | - | 789 W/m² | - |
| 1777830651 | 18.33° C | 49% | 1021.7 hPa | 0 mm | - | 791 W/m² | - |
| 1777830348 | 18.89° C | 45% | 1022.1 hPa | 0 mm | - | 783 W/m² | - |
| 1777830044 | 18.33° C | 49% | 1021.9 hPa | 0 mm | - | 785 W/m² | - |
| 1777829739 | 17.78° C | 43% | 1021.7 hPa | 0 mm | - | 783 W/m² | - |
| 1777829436 | 18.33° C | 44% | 1021.9 hPa | 0 mm | - | 783 W/m² | - |
| 1777829134 | 18.33° C | 47% | 1021.9 hPa | 0 mm | - | 783 W/m² | - |
| 1777828830 | 18.33° C | 44% | 1021.9 hPa | 0 mm | - | 783 W/m² | - |
| 1777828526 | 17.78° C | 46% | 1022.2 hPa | 0 mm | - | 783 W/m² | - |
| 1777828224 | 17.78° C | 47% | 1022.3 hPa | 0 mm | - | 780 W/m² | - |
| 1777827914 | 17.22° C | 53% | 1022.2 hPa | 0 mm | - | 774 W/m² | - |
| 1777827612 | 16.67° C | 56% | 1022.4 hPa | 0 mm | - | 775 W/m² | - |
| 1777827310 | 17.78° C | 49% | 1022.4 hPa | 0 mm | - | 767 W/m² | - |
| 1777827005 | 17.22° C | 56% | 1022.7 hPa | 0 mm | - | 760 W/m² | - |
* Rain latest hour (hover to see other rain measurements)
** Current wind speed in m/s (hover to see current wind gust speed)